createdAt,value
2023-02-28T00:01:08.696Z,2.50
2023-02-28T00:03:36.240Z,2.50
2023-02-28T00:06:07.093Z,2.50
2023-02-28T00:08:34.544Z,2.50
2023-02-28T00:11:06.062Z,2.60
2023-02-28T00:13:34.415Z,2.50
2023-02-28T00:16:21.114Z,2.50
2023-02-28T00:18:48.793Z,2.40
2023-02-28T00:21:16.565Z,2.30
2023-02-28T00:23:43.339Z,2.30
2023-02-28T00:26:10.101Z,2.30
2023-02-28T00:28:36.791Z,2.30
2023-02-28T00:31:03.858Z,2.20
2023-02-28T00:33:30.620Z,2.30
2023-02-28T00:36:09.854Z,2.30
2023-02-28T00:38:36.804Z,2.20
2023-02-28T00:41:05.645Z,2.20
2023-02-28T00:43:39.654Z,2.20
2023-02-28T00:46:06.667Z,2.10
2023-02-28T00:48:34.133Z,2.00
2023-02-28T00:51:01.160Z,2.10
2023-02-28T00:53:28.021Z,2.10
2023-02-28T00:55:54.862Z,2.10
2023-02-28T00:58:21.664Z,2.10
2023-02-28T01:00:50.023Z,2.00
2023-02-28T01:03:18.993Z,1.90
2023-02-28T01:05:46.565Z,1.90
2023-02-28T01:08:14.633Z,1.90
2023-02-28T01:10:41.504Z,1.90
2023-02-28T01:13:08.403Z,1.90
2023-02-28T01:15:35.208Z,1.80
2023-02-28T01:18:02.062Z,1.80
2023-02-28T01:20:28.854Z,1.80
2023-02-28T01:22:55.617Z,1.80
2023-02-28T01:25:22.330Z,1.80
2023-02-28T01:27:49.058Z,1.80
2023-02-28T01:30:15.938Z,1.80
2023-02-28T01:32:42.625Z,1.70
2023-02-28T01:35:09.625Z,1.70
2023-02-28T01:37:36.310Z,1.70
2023-02-28T01:40:03.415Z,1.70
2023-02-28T01:42:30.194Z,1.70
2023-02-28T01:45:05.321Z,1.70
2023-02-28T01:47:40.598Z,1.60
2023-02-28T01:50:13.608Z,1.60
2023-02-28T01:52:40.655Z,1.50
2023-02-28T01:55:09.324Z,1.50
2023-02-28T01:57:41.429Z,1.40
2023-02-28T02:00:21.109Z,1.40
2023-02-28T02:02:51.978Z,1.40
2023-02-28T02:05:22.102Z,1.50
2023-02-28T02:07:53.629Z,1.40
2023-02-28T02:10:25.436Z,1.40
2023-02-28T02:13:13.389Z,1.40
2023-02-28T02:15:49.762Z,1.40
2023-02-28T02:18:25.361Z,1.40
2023-02-28T02:21:14.809Z,1.30
2023-02-28T02:24:12.147Z,1.40
2023-02-28T02:26:56.557Z,1.40
2023-02-28T02:29:35.828Z,1.40
2023-02-28T02:32:40.369Z,1.30
2023-02-28T02:35:28.063Z,1.30
2023-02-28T02:38:14.800Z,1.30
2023-02-28T02:41:10.476Z,1.30
2023-02-28T02:43:45.361Z,1.20
2023-02-28T02:46:21.233Z,1.20
2023-02-28T02:48:48.194Z,1.10
2023-02-28T02:51:18.683Z,1.10
2023-02-28T02:53:53.447Z,1.10
2023-02-28T02:56:24.812Z,0.90
2023-02-28T02:58:55.659Z,0.90
2023-02-28T03:01:29.025Z,0.90
2023-02-28T03:04:05.459Z,0.80
2023-02-28T03:06:32.384Z,0.80
2023-02-28T03:09:00.586Z,0.70
2023-02-28T03:11:28.024Z,0.70
2023-02-28T03:14:10.843Z,0.70
2023-02-28T03:16:44.443Z,0.70
2023-02-28T03:19:22.660Z,0.60
2023-02-28T03:21:58.393Z,0.60
2023-02-28T03:24:46.177Z,0.50
2023-02-28T03:27:22.101Z,0.50
2023-02-28T03:29:57.590Z,0.50
2023-02-28T03:33:00.590Z,0.50
2023-02-28T03:35:33.212Z,0.50
2023-02-28T03:38:30.692Z,0.50
2023-02-28T03:41:19.970Z,0.50
2023-02-28T03:43:55.720Z,0.50
2023-02-28T03:46:24.918Z,0.50
2023-02-28T03:48:54.307Z,0.50
2023-02-28T03:51:25.298Z,0.40
2023-02-28T03:54:02.413Z,0.40
2023-02-28T03:56:38.458Z,0.40
2023-02-28T03:59:16.181Z,0.40
2023-02-28T04:01:46.135Z,0.50
2023-02-28T04:04:13.912Z,0.40
2023-02-28T04:06:41.805Z,0.40
2023-02-28T04:09:14.732Z,0.40
2023-02-28T04:11:45.475Z,0.40
2023-02-28T04:14:13.204Z,0.30
2023-02-28T04:16:42.512Z,0.30
2023-02-28T04:19:11.805Z,0.30
2023-02-28T04:21:43.803Z,0.30
2023-02-28T04:24:18.800Z,0.20
2023-02-28T04:26:48.718Z,0.20
2023-02-28T04:29:20.811Z,0.20
2023-02-28T04:31:47.649Z,0.20
2023-02-28T04:34:14.472Z,0.10
2023-02-28T04:36:41.368Z,0.10
2023-02-28T04:39:08.065Z,0.10
2023-02-28T04:41:35.087Z,0.10
2023-02-28T04:44:02.056Z,0.10
2023-02-28T04:46:29.079Z,0.10
2023-02-28T04:48:55.818Z,0.00
2023-02-28T04:51:22.651Z,0.00
2023-02-28T04:53:49.895Z,0.00
2023-02-28T04:56:18.477Z,0.00
2023-02-28T04:58:45.424Z,0.00
2023-02-28T05:01:28.528Z,0.00
2023-02-28T05:03:57.480Z,-0.10
2023-02-28T05:06:26.707Z,-0.10
2023-02-28T05:08:54.229Z,-0.10
2023-02-28T05:11:24.359Z,-0.10
2023-02-28T05:13:51.955Z,-0.10
2023-02-28T05:16:19.662Z,-0.20
2023-02-28T05:18:47.170Z,-0.10
2023-02-28T05:21:32.499Z,-0.10
2023-02-28T05:24:02.542Z,-0.20
2023-02-28T05:26:29.843Z,-0.20
2023-02-28T05:28:57.320Z,-0.20
2023-02-28T05:31:24.303Z,-0.20
2023-02-28T05:33:51.102Z,-0.30
2023-02-28T05:36:18.038Z,-0.30
2023-02-28T05:38:48.013Z,-0.30
2023-02-28T05:41:15.358Z,-0.40
2023-02-28T05:43:42.262Z,-0.30
2023-02-28T05:46:11.554Z,-0.30
2023-02-28T05:48:40.011Z,-0.40
2023-02-28T05:51:08.247Z,-0.40
2023-02-28T05:53:35.664Z,-0.40
2023-02-28T05:56:02.437Z,-0.40
2023-02-28T05:58:32.210Z,-0.40
2023-02-28T06:01:20.706Z,-0.40
2023-02-28T06:03:47.611Z,-0.50
2023-02-28T06:06:14.392Z,-0.50
2023-02-28T06:08:41.178Z,-0.50
2023-02-28T06:11:08.433Z,-0.50
2023-02-28T06:13:35.455Z,-0.40
2023-02-28T06:16:02.778Z,-0.50
2023-02-28T06:18:29.496Z,-0.50
2023-02-28T06:20:56.494Z,-0.50
2023-02-28T06:23:23.527Z,-0.40
2023-02-28T06:25:50.645Z,-0.40
2023-02-28T06:28:17.379Z,-0.40
2023-02-28T06:30:46.373Z,-0.40
2023-02-28T06:33:13.269Z,-0.40
2023-02-28T06:35:40.062Z,-0.30
2023-02-28T06:38:06.828Z,-0.30
2023-02-28T06:40:36.031Z,-0.30
2023-02-28T06:43:03.469Z,-0.20
2023-02-28T06:45:30.255Z,-0.20
2023-02-28T06:47:56.938Z,-0.20
2023-02-28T06:50:23.751Z,-0.20
2023-02-28T06:52:54.831Z,-0.10
2023-02-28T06:55:21.603Z,-0.10
2023-02-28T06:57:48.311Z,0.00
2023-02-28T07:00:15.598Z,0.10
2023-02-28T07:02:42.255Z,0.20
2023-02-28T07:05:09.323Z,0.30
2023-02-28T07:07:37.308Z,0.40
2023-02-28T07:10:04.615Z,0.60
2023-02-28T07:12:31.699Z,0.70
2023-02-28T07:14:58.415Z,0.80
2023-02-28T07:17:25.378Z,1.00
2023-02-28T07:19:52.100Z,1.10
2023-02-28T07:22:19.027Z,1.20
2023-02-28T07:24:45.761Z,1.30
2023-02-28T07:27:12.540Z,1.40
2023-02-28T07:29:39.404Z,1.50
2023-02-28T07:32:06.181Z,1.60
2023-02-28T07:34:32.977Z,1.70
2023-02-28T07:37:00.158Z,1.80
2023-02-28T07:39:27.038Z,1.80
2023-02-28T07:41:53.777Z,1.90
2023-02-28T07:44:20.477Z,1.90
2023-02-28T07:46:47.261Z,2.00
2023-02-28T07:49:14.026Z,2.10
2023-02-28T07:51:40.881Z,2.20
2023-02-28T07:54:07.581Z,2.30
2023-02-28T07:56:34.348Z,2.40
2023-02-28T07:59:02.518Z,2.60
2023-02-28T08:01:30.373Z,2.70
2023-02-28T08:03:58.095Z,2.80
2023-02-28T08:06:27.223Z,2.90
2023-02-28T08:08:54.293Z,3.00
2023-02-28T08:11:21.018Z,3.10
2023-02-28T08:13:47.894Z,3.20
2023-02-28T08:16:18.641Z,3.30
2023-02-28T08:18:45.714Z,3.40
2023-02-28T08:21:12.705Z,3.60
2023-02-28T08:23:39.863Z,3.70
2023-02-28T08:26:06.927Z,3.90
2023-02-28T08:28:34.176Z,4.10
2023-02-28T08:31:02.231Z,4.30
2023-02-28T08:33:29.174Z,4.40
2023-02-28T08:35:57.125Z,4.50
2023-02-28T08:38:24.872Z,4.70
2023-02-28T08:40:57.646Z,4.80
2023-02-28T08:43:24.561Z,5.00
2023-02-28T08:45:57.647Z,5.00
2023-02-28T08:48:26.127Z,5.00
2023-02-28T08:51:07.697Z,5.10
2023-02-28T08:53:36.418Z,5.20
2023-02-28T08:56:06.451Z,5.20
2023-02-28T08:58:33.506Z,5.20
2023-02-28T09:01:00.274Z,5.40
2023-02-28T09:03:28.092Z,5.40
2023-02-28T09:06:00.090Z,5.50
2023-02-28T09:08:29.715Z,5.40
2023-02-28T09:10:58.617Z,5.40
2023-02-28T09:13:26.795Z,5.50
2023-02-28T09:15:54.336Z,5.60
2023-02-28T09:18:21.170Z,5.70
2023-02-28T09:20:47.844Z,5.70
2023-02-28T09:23:14.611Z,5.80
2023-02-28T09:25:49.636Z,5.80
2023-02-28T09:28:18.386Z,5.70
2023-02-28T09:30:46.528Z,5.80
2023-02-28T09:33:14.750Z,5.80
2023-02-28T09:35:41.770Z,5.80
2023-02-28T09:38:08.606Z,5.80
2023-02-28T09:40:49.564Z,5.80
2023-02-28T09:43:18.569Z,5.80
2023-02-28T09:45:59.552Z,5.80
2023-02-28T09:48:33.163Z,5.70
2023-02-28T09:51:32.051Z,5.70
2023-02-28T09:54:01.920Z,5.70
2023-02-28T09:56:43.164Z,5.70
2023-02-28T09:59:18.402Z,5.70
2023-02-28T10:02:22.347Z,5.70
2023-02-28T10:04:58.560Z,5.90
2023-02-28T10:07:37.381Z,6.10
2023-02-28T10:10:16.377Z,6.10
2023-02-28T10:12:47.438Z,6.40
2023-02-28T10:15:18.428Z,6.60
2023-02-28T10:17:55.636Z,6.90
2023-02-28T10:20:36.718Z,7.30
2023-02-28T10:23:22.903Z,7.70
2023-02-28T10:25:56.045Z,8.40
2023-02-28T10:28:22.837Z,9.50
2023-02-28T10:30:54.775Z,10.10
2023-02-28T10:33:33.356Z,10.80
2023-02-28T10:36:00.470Z,11.50
2023-02-28T10:38:38.954Z,12.10
2023-02-28T10:41:10.462Z,12.50
2023-02-28T10:43:39.060Z,13.40
2023-02-28T10:46:16.231Z,13.70
2023-02-28T10:49:06.302Z,14.30
2023-02-28T10:51:41.510Z,14.90
2023-02-28T10:54:19.045Z,15.90
2023-02-28T10:56:45.858Z,16.50
2023-02-28T10:59:15.619Z,17.10
2023-02-28T11:01:53.702Z,17.20
2023-02-28T11:04:40.601Z,17.80
2023-02-28T11:07:22.172Z,18.40
2023-02-28T11:09:57.035Z,18.90
2023-02-28T11:12:27.633Z,19.20
2023-02-28T11:15:01.245Z,19.60
2023-02-28T11:17:32.813Z,20.20
2023-02-28T11:20:04.387Z,20.50
2023-02-28T11:22:34.937Z,20.40
2023-02-28T11:25:07.933Z,20.70
2023-02-28T11:27:34.833Z,20.90
2023-02-28T11:30:02.342Z,21.00
2023-02-28T11:32:31.557Z,21.30
2023-02-28T11:35:10.213Z,21.60
2023-02-28T11:37:37.886Z,21.60
2023-02-28T11:40:18.797Z,21.80
2023-02-28T11:42:54.529Z,21.40
2023-02-28T11:45:41.545Z,21.50
2023-02-28T11:48:24.600Z,21.80
2023-02-28T11:51:16.678Z,22.10
2023-02-28T11:53:58.887Z,22.30
2023-02-28T11:56:31.354Z,22.40
2023-02-28T11:59:09.716Z,22.30
2023-02-28T12:02:01.321Z,22.70
2023-02-28T12:05:09.172Z,23.00
2023-02-28T12:07:42.572Z,23.40
2023-02-28T12:10:31.406Z,23.70
2023-02-28T12:13:33.333Z,23.70
2023-02-28T12:16:09.452Z,23.80
2023-02-28T12:18:57.998Z,24.00
2023-02-28T12:21:45.897Z,23.70
2023-02-28T12:24:27.677Z,24.10
2023-02-28T12:26:57.625Z,24.20
2023-02-28T12:29:55.690Z,23.70
2023-02-28T12:32:33.128Z,23.90
2023-02-28T12:35:26.072Z,23.90
2023-02-28T12:38:24.709Z,23.20
2023-02-28T12:41:03.333Z,23.30
2023-02-28T12:43:44.338Z,23.50
2023-02-28T12:46:18.713Z,23.30
2023-02-28T12:48:54.623Z,22.80
2023-02-28T12:51:22.232Z,23.20
2023-02-28T12:54:12.628Z,23.70
2023-02-28T12:56:54.664Z,23.10
2023-02-28T12:59:21.292Z,23.40
2023-02-28T13:02:24.947Z,23.40
2023-02-28T13:04:57.885Z,23.60
2023-02-28T13:07:30.850Z,23.70
2023-02-28T13:10:00.487Z,24.00
2023-02-28T13:12:27.887Z,24.00
2023-02-28T13:15:25.648Z,24.00
2023-02-28T13:17:55.079Z,24.00
2023-02-28T13:20:23.028Z,23.80
2023-02-28T13:22:53.607Z,23.70
2023-02-28T13:25:23.133Z,23.70
2023-02-28T13:27:57.904Z,23.60
2023-02-28T13:30:56.618Z,23.80
2023-02-28T13:33:33.929Z,23.60
2023-02-28T13:36:12.432Z,23.90
2023-02-28T13:38:48.786Z,23.80
2023-02-28T13:41:34.442Z,23.80
2023-02-28T13:44:18.030Z,23.60
2023-02-28T13:46:50.953Z,23.60
2023-02-28T13:49:23.897Z,23.40
2023-02-28T13:51:56.002Z,23.00
2023-02-28T13:54:37.959Z,22.30
2023-02-28T13:57:29.552Z,21.60
2023-02-28T14:00:23.579Z,20.90
2023-02-28T14:03:12.526Z,19.60
2023-02-28T14:05:39.918Z,18.90
2023-02-28T14:08:17.775Z,18.30
2023-02-28T14:11:03.407Z,17.70
2023-02-28T14:13:46.042Z,17.50
2023-02-28T14:16:27.944Z,16.90
2023-02-28T14:19:02.973Z,17.00
2023-02-28T14:21:35.093Z,17.20
2023-02-28T14:24:30.997Z,17.40
2023-02-28T14:27:35.853Z,16.40
2023-02-28T14:30:15.409Z,15.70
2023-02-28T14:33:03.145Z,16.30
2023-02-28T14:36:01.416Z,16.20
2023-02-28T14:38:54.512Z,16.40
2023-02-28T14:41:38.076Z,16.10
2023-02-28T14:44:27.974Z,16.70
2023-02-28T14:46:57.093Z,17.20
2023-02-28T14:49:33.286Z,16.50
2023-02-28T14:52:04.916Z,16.20
2023-02-28T14:54:31.661Z,16.00
2023-02-28T14:56:58.397Z,15.60
2023-02-28T14:59:30.936Z,15.10
2023-02-28T15:02:21.052Z,14.20
2023-02-28T15:05:03.871Z,14.20
2023-02-28T15:07:30.762Z,14.10
2023-02-28T15:10:21.805Z,14.30
2023-02-28T15:13:15.918Z,14.40
2023-02-28T15:16:04.694Z,14.50
2023-02-28T15:18:53.541Z,14.50
2023-02-28T15:21:28.592Z,14.70
2023-02-28T15:24:03.342Z,14.60
2023-02-28T15:26:42.322Z,14.60
2023-02-28T15:29:20.843Z,14.40
2023-02-28T15:31:57.288Z,14.20
2023-02-28T15:34:43.438Z,13.90
2023-02-28T15:37:41.745Z,13.10
2023-02-28T15:40:20.324Z,12.20
2023-02-28T15:43:06.874Z,11.40
2023-02-28T15:45:39.295Z,10.70
2023-02-28T15:48:24.875Z,10.10
2023-02-28T15:51:16.354Z,9.70
2023-02-28T15:53:58.195Z,9.40
2023-02-28T15:56:28.052Z,9.00
2023-02-28T15:58:57.047Z,8.60
2023-02-28T16:01:31.242Z,8.40
2023-02-28T16:04:21.056Z,8.30
2023-02-28T16:07:02.833Z,8.10
2023-02-28T16:09:33.059Z,7.90
2023-02-28T16:12:04.100Z,7.80
2023-02-28T16:14:31.836Z,7.70
2023-02-28T16:17:05.910Z,7.60
2023-02-28T16:19:34.618Z,7.50
2023-02-28T16:22:02.086Z,7.40
2023-02-28T16:24:28.827Z,7.20
2023-02-28T16:26:58.080Z,7.10
2023-02-28T16:29:30.464Z,7.00
2023-02-28T16:31:57.896Z,7.10
2023-02-28T16:34:25.203Z,7.00
2023-02-28T16:36:52.830Z,6.90
2023-02-28T16:39:21.654Z,6.80
2023-02-28T16:41:49.912Z,6.80
2023-02-28T16:44:29.286Z,6.70
2023-02-28T16:46:56.117Z,6.70
2023-02-28T16:49:22.923Z,6.70
2023-02-28T16:51:49.633Z,6.50
2023-02-28T16:54:16.317Z,6.50
2023-02-28T16:56:46.303Z,6.40
2023-02-28T16:59:13.807Z,6.40
2023-02-28T17:01:40.634Z,6.30
2023-02-28T17:04:07.513Z,6.20
2023-02-28T17:06:34.249Z,6.20
2023-02-28T17:09:01.169Z,6.10
2023-02-28T17:11:28.428Z,6.10
2023-02-28T17:13:55.400Z,6.00
2023-02-28T17:16:33.928Z,6.00
2023-02-28T17:19:06.365Z,5.90
2023-02-28T17:21:33.975Z,5.80
2023-02-28T17:24:01.285Z,5.80
2023-02-28T17:26:28.964Z,5.70
2023-02-28T17:28:59.417Z,5.70
2023-02-28T17:31:27.749Z,5.60
2023-02-28T17:33:57.882Z,5.50
2023-02-28T17:36:28.649Z,5.40
2023-02-28T17:38:56.381Z,5.40
2023-02-28T17:41:23.605Z,5.30
2023-02-28T17:43:51.433Z,5.30
2023-02-28T17:46:21.307Z,5.20
2023-02-28T17:48:52.940Z,5.10
2023-02-28T17:51:22.293Z,5.00
2023-02-28T17:53:50.057Z,5.00
2023-02-28T17:56:27.239Z,5.00
2023-02-28T17:58:56.026Z,4.90
2023-02-28T18:01:23.735Z,4.80
2023-02-28T18:03:50.833Z,4.70
2023-02-28T18:06:22.469Z,4.60
2023-02-28T18:08:49.550Z,4.50
2023-02-28T18:11:21.980Z,4.50
2023-02-28T18:13:50.769Z,4.40
2023-02-28T18:16:18.662Z,4.30
2023-02-28T18:18:45.812Z,4.30
2023-02-28T18:21:14.913Z,4.20
2023-02-28T18:23:47.783Z,4.20
2023-02-28T18:26:16.307Z,4.10
2023-02-28T18:28:44.547Z,4.10
2023-02-28T18:31:15.943Z,4.10
2023-02-28T18:33:43.785Z,4.00
2023-02-28T18:36:10.591Z,3.90
2023-02-28T18:38:37.910Z,3.90
2023-02-28T18:41:07.157Z,3.80
2023-02-28T18:43:35.947Z,3.80
2023-02-28T18:46:10.939Z,3.70
2023-02-28T18:48:38.062Z,3.70
2023-02-28T18:51:12.155Z,3.60
2023-02-28T18:53:40.174Z,3.70
2023-02-28T18:56:08.656Z,3.60
2023-02-28T18:58:35.680Z,3.60
2023-02-28T19:01:12.971Z,3.60
2023-02-28T19:03:39.799Z,3.60
2023-02-28T19:06:06.743Z,3.50
2023-02-28T19:08:33.449Z,3.50
2023-02-28T19:11:00.145Z,3.50
2023-02-28T19:13:26.862Z,3.40
2023-02-28T19:16:02.498Z,3.30
2023-02-28T19:18:29.247Z,3.30
2023-02-28T19:20:56.022Z,3.20
2023-02-28T19:23:22.672Z,3.20
2023-02-28T19:25:49.378Z,3.10
2023-02-28T19:28:16.188Z,3.10
2023-02-28T19:30:51.090Z,3.10
2023-02-28T19:33:17.865Z,3.10
2023-02-28T19:35:44.663Z,3.10
2023-02-28T19:38:11.394Z,3.10
2023-02-28T19:40:39.030Z,3.00
2023-02-28T19:43:06.334Z,3.00
2023-02-28T19:45:34.080Z,3.00
2023-02-28T19:48:00.831Z,2.90
2023-02-28T19:50:28.032Z,2.90
2023-02-28T19:52:54.821Z,2.80
2023-02-28T19:55:22.097Z,2.80
2023-02-28T19:57:48.840Z,2.70
2023-02-28T20:00:16.071Z,2.80
2023-02-28T20:02:43.919Z,2.70
2023-02-28T20:05:11.037Z,2.60
2023-02-28T20:07:37.827Z,2.60
2023-02-28T20:10:04.892Z,2.60
2023-02-28T20:12:31.659Z,2.50
2023-02-28T20:14:59.757Z,2.50
2023-02-28T20:17:28.135Z,2.50
2023-02-28T20:19:54.942Z,2.40
2023-02-28T20:22:21.803Z,2.40
2023-02-28T20:24:48.803Z,2.50
2023-02-28T20:27:15.734Z,2.30
2023-02-28T20:29:42.454Z,2.30
2023-02-28T20:32:09.377Z,2.30
2023-02-28T20:34:36.310Z,2.20
2023-02-28T20:37:03.128Z,2.20
2023-02-28T20:39:29.938Z,2.10
2023-02-28T20:41:56.703Z,2.10
2023-02-28T20:44:23.493Z,2.10
2023-02-28T20:46:50.908Z,2.10
2023-02-28T20:49:17.839Z,2.00
2023-02-28T20:51:44.898Z,2.00
2023-02-28T20:54:11.854Z,2.00
2023-02-28T20:56:38.886Z,2.00
2023-02-28T20:59:05.828Z,1.90
2023-02-28T21:01:32.774Z,1.90
2023-02-28T21:04:08.084Z,1.90
2023-02-28T21:06:37.639Z,1.80
2023-02-28T21:09:07.122Z,1.80
2023-02-28T21:11:35.859Z,1.80
2023-02-28T21:14:09.447Z,1.80
2023-02-28T21:16:37.905Z,1.70
2023-02-28T21:19:05.145Z,1.70
2023-02-28T21:21:35.260Z,1.60
2023-02-28T21:24:02.146Z,1.60
2023-02-28T21:26:29.250Z,1.60
2023-02-28T21:28:58.734Z,1.60
2023-02-28T21:31:28.623Z,1.60
2023-02-28T21:33:57.307Z,1.50
2023-02-28T21:36:27.311Z,1.50
2023-02-28T21:39:02.536Z,1.40
2023-02-28T21:41:29.490Z,1.40
2023-02-28T21:43:56.723Z,1.40
2023-02-28T21:46:26.216Z,1.40
2023-02-28T21:48:53.585Z,1.40
2023-02-28T21:51:23.594Z,1.40
2023-02-28T21:53:50.898Z,1.40
2023-02-28T21:56:23.250Z,1.30
2023-02-28T21:58:51.108Z,1.30
2023-02-28T22:01:22.508Z,1.40
2023-02-28T22:03:50.018Z,1.30
2023-02-28T22:06:20.119Z,1.30
2023-02-28T22:08:48.986Z,1.30
2023-02-28T22:11:16.776Z,1.30
2023-02-28T22:13:44.154Z,1.20
2023-02-28T22:16:16.542Z,1.20
2023-02-28T22:18:43.746Z,1.20
2023-02-28T22:21:11.737Z,1.20
2023-02-28T22:23:39.697Z,1.10
2023-02-28T22:26:08.830Z,1.10
2023-02-28T22:28:36.404Z,1.10
2023-02-28T22:31:20.508Z,1.10
2023-02-28T22:33:48.255Z,1.10
2023-02-28T22:36:17.258Z,1.10
2023-02-28T22:38:45.547Z,1.20
2023-02-28T22:41:12.408Z,1.10
2023-02-28T22:43:40.596Z,1.00
2023-02-28T22:46:09.879Z,1.00
2023-02-28T22:48:37.138Z,1.00
2023-02-28T22:51:15.002Z,0.90
2023-02-28T22:53:42.987Z,0.90
2023-02-28T22:56:14.955Z,0.90
2023-02-28T22:58:43.849Z,0.90
2023-02-28T23:01:14.997Z,0.90
2023-02-28T23:03:42.894Z,0.90
2023-02-28T23:06:18.122Z,0.90
2023-02-28T23:08:48.311Z,0.90
2023-02-28T23:11:26.635Z,0.90
2023-02-28T23:13:59.711Z,0.80
2023-02-28T23:16:27.770Z,0.80
2023-02-28T23:18:55.102Z,0.80
2023-02-28T23:21:22.690Z,0.80
2023-02-28T23:23:49.605Z,0.80
2023-02-28T23:26:16.364Z,0.80
2023-02-28T23:28:43.064Z,0.70
2023-02-28T23:31:09.823Z,0.70
2023-02-28T23:33:36.635Z,0.60
2023-02-28T23:36:11.508Z,0.60
2023-02-28T23:38:41.840Z,0.60
2023-02-28T23:41:12.356Z,0.60
2023-02-28T23:43:40.603Z,0.50
2023-02-28T23:46:09.195Z,0.40
2023-02-28T23:48:36.244Z,0.40
2023-02-28T23:51:17.924Z,0.40
2023-02-28T23:53:47.512Z,0.40
2023-02-28T23:56:17.718Z,0.30
2023-02-28T23:58:45.844Z,0.40
